createdAt,value
2019-01-11T00:00:33.372Z,32.60
2019-01-11T00:03:01.906Z,31.63
2019-01-11T00:05:30.356Z,23.73
2019-01-11T00:07:58.985Z,21.23
2019-01-11T00:10:27.751Z,23.90
2019-01-11T00:12:56.321Z,21.73
2019-01-11T00:15:25.055Z,22.67
2019-01-11T00:17:53.691Z,22.87
2019-01-11T00:20:22.074Z,21.73
2019-01-11T00:22:50.446Z,21.90
2019-01-11T00:25:19.093Z,22.67
2019-01-11T00:27:47.854Z,21.30
2019-01-11T00:30:16.318Z,23.47
2019-01-11T00:32:44.952Z,24.77
2019-01-11T00:35:13.597Z,21.90
2019-01-11T00:37:42.291Z,25.10
2019-01-11T00:40:11.101Z,27.43
2019-01-11T00:42:39.884Z,27.47
2019-01-11T00:45:08.575Z,28.40
2019-01-11T00:47:37.228Z,28.50
2019-01-11T00:50:05.623Z,29.92
2019-01-11T00:52:34.356Z,30.25
2019-01-11T00:55:03.790Z,30.47
2019-01-11T00:57:32.471Z,31.50
2019-01-11T01:00:01.200Z,31.30
2019-01-11T01:02:29.941Z,34.00
2019-01-11T01:04:58.800Z,33.53
2019-01-11T01:07:27.623Z,31.60
2019-01-11T01:09:56.175Z,30.33
2019-01-11T01:12:24.782Z,32.43
2019-01-11T01:14:53.547Z,31.97
2019-01-11T01:17:22.015Z,29.23
2019-01-11T01:19:50.490Z,28.60
2019-01-11T01:22:18.813Z,29.00
2019-01-11T01:24:47.674Z,26.80
2019-01-11T01:27:16.373Z,28.57
2019-01-11T01:29:44.974Z,29.47
2019-01-11T01:32:13.900Z,28.93
2019-01-11T01:34:42.547Z,29.23
2019-01-11T01:37:11.303Z,27.60
2019-01-11T01:39:39.586Z,28.07
2019-01-11T01:42:08.297Z,27.67
2019-01-11T01:44:37.001Z,27.40
2019-01-11T01:47:05.443Z,27.37
2019-01-11T01:49:33.976Z,27.20
2019-01-11T01:52:02.647Z,27.23
2019-01-11T01:54:32.569Z,27.43
2019-01-11T01:57:01.181Z,27.03
2019-01-11T01:59:29.884Z,25.47
2019-01-11T02:01:58.571Z,26.37
2019-01-11T02:04:27.041Z,27.77
2019-01-11T02:06:55.354Z,27.03
2019-01-11T02:09:24.047Z,27.73
2019-01-11T02:11:52.849Z,26.17
2019-01-11T02:14:22.151Z,28.67
2019-01-11T02:16:50.635Z,25.93
2019-01-11T02:19:19.276Z,28.77
2019-01-11T02:21:47.934Z,28.47
2019-01-11T02:24:16.622Z,28.83
2019-01-11T02:26:44.948Z,29.67
2019-01-11T02:29:13.707Z,29.60
2019-01-11T02:31:42.427Z,28.23
2019-01-11T02:34:10.998Z,27.87
2019-01-11T02:36:39.730Z,27.83
2019-01-11T02:39:08.372Z,26.43
2019-01-11T02:41:37.018Z,26.63
2019-01-11T02:44:05.399Z,25.40
2019-01-11T02:46:34.095Z,22.13
2019-01-11T02:49:02.813Z,22.60
2019-01-11T02:51:31.498Z,22.53
2019-01-11T02:54:00.104Z,22.27
2019-01-11T02:56:28.856Z,25.13
2019-01-11T02:58:57.515Z,22.60
2019-01-11T03:01:26.299Z,21.20
2019-01-11T03:03:54.927Z,21.17
2019-01-11T03:06:23.557Z,20.10
2019-01-11T03:08:51.995Z,20.03
2019-01-11T03:11:20.369Z,21.27
2019-01-11T03:13:49.190Z,21.00
2019-01-11T03:16:17.852Z,20.03
2019-01-11T03:18:46.900Z,19.33
2019-01-11T03:21:15.289Z,17.10
2019-01-11T03:23:44.097Z,18.03
2019-01-11T03:26:12.872Z,18.63
2019-01-11T03:28:41.276Z,17.67
2019-01-11T03:31:17.951Z,18.87
2019-01-11T03:33:46.690Z,16.83
2019-01-11T03:36:15.301Z,19.00
2019-01-11T03:38:43.929Z,19.33
2019-01-11T03:41:12.783Z,18.53
2019-01-11T03:43:41.551Z,19.07
2019-01-11T03:46:09.847Z,18.13
2019-01-11T03:48:38.606Z,17.77
2019-01-11T03:51:07.351Z,18.10
2019-01-11T03:53:36.045Z,16.60
2019-01-11T03:56:04.900Z,16.90
2019-01-11T03:58:33.227Z,17.53
2019-01-11T04:01:01.848Z,16.73
2019-01-11T04:03:31.530Z,17.23
2019-01-11T04:06:00.434Z,17.17
2019-01-11T04:08:28.894Z,16.40
2019-01-11T04:10:57.732Z,17.30
2019-01-11T04:13:30.461Z,16.57
2019-01-11T04:15:56.996Z,16.73
2019-01-11T04:18:32.323Z,18.90
2019-01-11T04:21:01.762Z,17.17
2019-01-11T04:23:30.288Z,16.50
2019-01-11T04:25:59.061Z,16.83
2019-01-11T04:28:27.707Z,16.90
2019-01-11T04:30:56.576Z,15.93
2019-01-11T04:33:25.274Z,15.53
2019-01-11T04:35:53.975Z,14.80
2019-01-11T04:38:22.773Z,17.10
2019-01-11T04:40:51.296Z,16.97
2019-01-11T04:43:19.914Z,16.67
2019-01-11T04:45:48.764Z,15.83
2019-01-11T04:48:17.447Z,15.37
2019-01-11T04:50:46.101Z,16.07
2019-01-11T04:53:14.808Z,17.20
2019-01-11T04:55:43.361Z,16.07
2019-01-11T04:58:11.570Z,17.47
2019-01-11T05:00:40.324Z,15.93
2019-01-11T05:03:08.945Z,17.53
2019-01-11T05:05:37.375Z,17.87
2019-01-11T05:08:05.916Z,17.63
2019-01-11T05:10:34.217Z,17.67
2019-01-11T05:13:31.024Z,16.30
2019-01-11T05:15:59.909Z,18.13
2019-01-11T05:18:28.744Z,15.93
2019-01-11T05:20:57.585Z,17.53
2019-01-11T05:23:26.188Z,16.87
2019-01-11T05:25:56.592Z,19.67
2019-01-11T05:28:26.453Z,19.83
2019-01-11T05:30:55.601Z,17.23
2019-01-11T05:33:24.219Z,17.00
2019-01-11T05:35:53.129Z,15.13
2019-01-11T05:38:21.787Z,17.23
2019-01-11T05:40:50.136Z,16.70
2019-01-11T05:43:19.028Z,16.67
2019-01-11T05:45:47.524Z,17.33
2019-01-11T05:48:16.291Z,16.90
2019-01-11T05:50:44.982Z,16.63
2019-01-11T05:53:13.624Z,16.27
2019-01-11T05:55:46.560Z,16.80
2019-01-11T05:58:44.238Z,15.93
2019-01-11T06:01:13.261Z,16.50
2019-01-11T06:03:41.899Z,17.00
2019-01-11T06:06:10.339Z,16.27
2019-01-11T06:08:39.028Z,16.80
2019-01-11T06:11:07.863Z,16.87
2019-01-11T06:13:36.656Z,16.60
2019-01-11T06:16:05.643Z,17.43
2019-01-11T06:18:34.497Z,20.97
2019-01-11T06:21:03.210Z,28.33
2019-01-11T06:23:31.822Z,50.20
2019-01-11T06:26:00.707Z,42.43
2019-01-11T06:28:29.223Z,39.03
2019-01-11T06:30:58.069Z,35.37
2019-01-11T06:33:26.530Z,33.53
2019-01-11T06:35:55.199Z,29.47
2019-01-11T06:38:23.856Z,25.70
2019-01-11T06:40:52.485Z,26.87
2019-01-11T06:43:20.896Z,26.27
2019-01-11T06:45:49.573Z,25.40
2019-01-11T06:48:37.527Z,25.10
2019-01-11T06:51:06.432Z,25.93
2019-01-11T06:53:34.833Z,22.73
2019-01-11T06:56:03.685Z,23.97
2019-01-11T06:58:31.946Z,23.57
2019-01-11T07:01:00.335Z,23.03
2019-01-11T07:03:28.946Z,20.70
2019-01-11T07:05:57.539Z,22.50
2019-01-11T07:08:25.823Z,21.17
2019-01-11T07:10:54.579Z,21.47
2019-01-11T07:13:23.121Z,20.23
2019-01-11T07:15:51.950Z,19.73
2019-01-11T07:18:20.270Z,21.03
2019-01-11T07:20:48.982Z,24.83
2019-01-11T07:23:17.798Z,23.43
2019-01-11T07:25:47.690Z,28.20
2019-01-11T07:28:16.377Z,28.00
2019-01-11T07:31:04.371Z,34.77
2019-01-11T07:33:33.189Z,29.33
2019-01-11T07:36:15.696Z,31.73
2019-01-11T07:38:44.468Z,28.87
2019-01-11T07:41:13.124Z,35.33
2019-01-11T07:43:41.460Z,39.00
2019-01-11T07:46:10.148Z,29.83
2019-01-11T07:48:38.749Z,29.73
2019-01-11T07:51:07.465Z,28.03
2019-01-11T07:53:36.217Z,35.40
2019-01-11T07:56:04.972Z,32.73
2019-01-11T07:58:33.635Z,29.73
2019-01-11T08:01:02.983Z,28.20
2019-01-11T08:03:31.640Z,27.00
2019-01-11T08:06:00.299Z,26.87
2019-01-11T08:08:29.033Z,23.23
2019-01-11T08:10:57.500Z,27.47
2019-01-11T08:13:25.871Z,35.17
2019-01-11T08:15:54.490Z,30.90
2019-01-11T08:18:23.193Z,19.93
2019-01-11T08:20:56.226Z,18.10
2019-01-11T08:23:22.503Z,15.57
2019-01-11T08:25:51.283Z,14.07
2019-01-11T08:28:20.357Z,12.53
2019-01-11T08:30:48.914Z,13.33
2019-01-11T08:33:18.893Z,13.43
2019-01-11T08:35:47.652Z,13.07
2019-01-11T08:38:16.152Z,13.03
2019-01-11T08:40:44.826Z,13.10
2019-01-11T08:43:13.243Z,13.40
2019-01-11T08:45:42.084Z,13.97
2019-01-11T08:48:12.221Z,13.90
2019-01-11T08:50:40.840Z,13.03
2019-01-11T08:53:09.496Z,12.53
2019-01-11T08:55:38.041Z,12.03
2019-01-11T08:58:07.876Z,11.93
2019-01-11T09:00:36.587Z,12.37
2019-01-11T09:03:05.392Z,11.63
2019-01-11T09:05:34.048Z,11.83
2019-01-11T09:08:02.696Z,11.40
2019-01-11T09:10:31.659Z,11.43
2019-01-11T09:13:00.171Z,10.83
2019-01-11T09:15:28.883Z,10.80
2019-01-11T09:18:17.067Z,12.23
2019-01-11T09:20:45.366Z,11.30
2019-01-11T09:23:14.159Z,10.87
2019-01-11T09:25:42.808Z,10.50
2019-01-11T09:28:11.607Z,10.73
2019-01-11T09:30:40.277Z,10.53
2019-01-11T09:33:09.112Z,10.13
2019-01-11T09:35:37.806Z,10.43
2019-01-11T09:38:06.490Z,10.43
2019-01-11T09:40:35.336Z,11.63
2019-01-11T09:43:04.011Z,11.87
2019-01-11T09:45:32.495Z,11.07
2019-01-11T09:48:01.143Z,10.67
2019-01-11T09:50:29.563Z,10.87
2019-01-11T09:52:58.400Z,11.77
2019-01-11T09:55:27.108Z,12.73
2019-01-11T09:57:55.807Z,10.50
2019-01-11T10:00:25.196Z,13.93
2019-01-11T10:02:59.364Z,13.53
2019-01-11T10:05:28.059Z,13.63
2019-01-11T10:07:56.665Z,13.80
2019-01-11T10:10:26.520Z,12.73
2019-01-11T10:12:55.180Z,12.70
2019-01-11T10:15:23.808Z,13.73
2019-01-11T10:17:52.577Z,14.17
2019-01-11T10:20:21.384Z,18.33
2019-01-11T10:22:50.113Z,14.20
2019-01-11T10:25:20.649Z,13.17
2019-01-11T10:27:49.291Z,12.03
2019-01-11T10:30:18.969Z,11.33
2019-01-11T10:32:47.709Z,11.63
2019-01-11T10:35:16.396Z,12.93
2019-01-11T10:37:45.191Z,12.17
2019-01-11T10:40:14.962Z,11.08
2019-01-11T10:42:43.942Z,10.30
2019-01-11T10:45:17.841Z,9.67
2019-01-11T10:47:46.623Z,10.87
2019-01-11T10:50:16.327Z,10.45
2019-01-11T10:52:44.747Z,9.13
2019-01-11T10:55:14.235Z,8.10
2019-01-11T10:57:43.239Z,9.60
2019-01-11T11:00:15.141Z,10.70
2019-01-11T11:02:43.725Z,10.43
2019-01-11T11:05:12.523Z,11.60
2019-01-11T11:07:41.107Z,12.63
2019-01-11T11:10:10.275Z,12.27
2019-01-11T11:12:39.026Z,12.25
2019-01-11T11:15:09.201Z,12.17
2019-01-11T11:17:37.996Z,10.97
2019-01-11T11:20:07.833Z,13.05
2019-01-11T11:22:36.268Z,14.58
2019-01-11T11:25:06.894Z,13.87
2019-01-11T11:27:35.531Z,12.93
2019-01-11T11:30:05.287Z,14.33
2019-01-11T11:32:47.305Z,14.87
2019-01-11T11:35:16.146Z,13.60
2019-01-11T11:37:45.197Z,11.60
2019-01-11T11:40:14.141Z,13.63
2019-01-11T11:42:42.737Z,13.63
2019-01-11T11:45:11.867Z,13.03
2019-01-11T11:47:40.674Z,14.65
2019-01-11T11:50:09.348Z,14.67
2019-01-11T11:52:38.162Z,14.43
2019-01-11T11:55:07.197Z,15.15
2019-01-11T11:57:35.940Z,15.35
2019-01-11T12:00:06.519Z,14.73
2019-01-11T12:02:35.048Z,15.05
2019-01-11T12:05:04.523Z,15.63
2019-01-11T12:07:33.159Z,14.00
2019-01-11T12:10:01.820Z,14.67
2019-01-11T12:12:31.420Z,11.80
2019-01-11T12:15:00.208Z,14.20
2019-01-11T12:17:28.796Z,14.63
2019-01-11T12:19:57.444Z,14.67
2019-01-11T12:22:26.262Z,14.43
2019-01-11T12:24:55.041Z,14.57
2019-01-11T12:27:23.459Z,14.40
2019-01-11T12:29:52.117Z,16.60
2019-01-11T12:32:20.730Z,14.07
2019-01-11T12:34:49.365Z,13.43
2019-01-11T12:37:17.924Z,11.63
2019-01-11T12:39:46.697Z,14.18
2019-01-11T12:42:15.204Z,9.83
2019-01-11T12:44:43.979Z,12.83
2019-01-11T12:47:12.484Z,11.60
2019-01-11T12:49:41.178Z,10.70
2019-01-11T12:52:09.825Z,11.07
2019-01-11T12:54:38.459Z,10.50
2019-01-11T12:57:07.149Z,11.00
2019-01-11T12:59:35.852Z,10.30
2019-01-11T13:02:04.976Z,11.57
2019-01-11T13:04:33.685Z,10.53
2019-01-11T13:07:02.290Z,9.93
2019-01-11T13:09:31.064Z,10.37
2019-01-11T13:11:59.821Z,9.50
2019-01-11T13:14:28.581Z,10.33
2019-01-11T13:16:57.143Z,6.80
2019-01-11T13:19:25.827Z,7.37
2019-01-11T13:22:00.503Z,8.03
2019-01-11T13:24:25.979Z,8.00
2019-01-11T13:26:54.886Z,8.40
2019-01-11T13:29:25.596Z,8.47
2019-01-11T13:31:54.189Z,8.13
2019-01-11T13:34:22.888Z,8.80
2019-01-11T13:36:54.031Z,8.40
2019-01-11T13:39:22.009Z,7.83
2019-01-11T13:41:50.633Z,7.40
2019-01-11T13:44:19.381Z,7.93
2019-01-11T13:46:48.284Z,8.37
2019-01-11T13:49:17.184Z,7.47
2019-01-11T13:51:45.915Z,8.00
2019-01-11T13:54:14.672Z,7.80
2019-01-11T13:56:43.069Z,7.40
2019-01-11T13:59:11.771Z,8.03
2019-01-11T14:01:41.505Z,8.47
2019-01-11T14:04:10.243Z,8.80
2019-01-11T14:06:38.949Z,7.97
2019-01-11T14:09:08.764Z,7.83
2019-01-11T14:11:37.451Z,7.97
2019-01-11T14:14:07.836Z,9.37
2019-01-11T14:16:36.699Z,7.80
2019-01-11T14:19:05.327Z,8.17
2019-01-11T14:21:34.037Z,10.13
2019-01-11T14:24:02.919Z,8.10
2019-01-11T14:26:32.564Z,7.87
2019-01-11T14:29:01.259Z,9.83
2019-01-11T14:31:29.892Z,13.30
2019-01-11T14:33:58.700Z,9.13
2019-01-11T14:36:27.289Z,8.63
2019-01-11T14:38:56.151Z,7.17
2019-01-11T14:41:25.431Z,7.43
2019-01-11T14:43:54.363Z,7.30
2019-01-11T14:46:23.035Z,7.63
2019-01-11T14:48:51.702Z,8.37
2019-01-11T14:51:21.562Z,8.03
2019-01-11T14:53:50.496Z,8.10
2019-01-11T14:56:18.931Z,8.20
2019-01-11T14:58:47.696Z,8.00
2019-01-11T15:01:16.355Z,8.50
2019-01-11T15:03:44.895Z,8.57
2019-01-11T15:06:13.581Z,8.50
2019-01-11T15:08:42.199Z,8.87
2019-01-11T15:11:10.919Z,9.87
2019-01-11T15:13:39.504Z,10.33
2019-01-11T15:16:08.213Z,10.93
2019-01-11T15:18:36.911Z,10.53
2019-01-11T15:21:06.769Z,9.97
2019-01-11T15:23:36.647Z,9.50
2019-01-11T15:26:05.483Z,10.03
2019-01-11T15:28:34.245Z,10.17
2019-01-11T15:31:02.929Z,9.63
2019-01-11T15:33:31.704Z,9.60
2019-01-11T15:36:00.332Z,9.60
2019-01-11T15:38:29.223Z,11.47
2019-01-11T15:40:57.932Z,12.53
2019-01-11T15:43:26.630Z,11.27
2019-01-11T15:46:02.612Z,12.37
2019-01-11T15:48:59.712Z,13.13
2019-01-11T15:51:30.312Z,12.63
2019-01-11T15:53:59.936Z,12.93
2019-01-11T15:56:28.692Z,13.00
2019-01-11T15:58:57.367Z,13.47
2019-01-11T16:01:26.295Z,13.50
2019-01-11T16:03:54.803Z,13.03
2019-01-11T16:06:31.062Z,14.57
2019-01-11T16:09:55.488Z,15.73
2019-01-11T16:12:25.991Z,16.23
2019-01-11T16:15:28.691Z,14.20
2019-01-11T16:17:59.893Z,14.17
2019-01-11T16:20:28.486Z,13.50
2019-01-11T16:22:57.332Z,15.40
2019-01-11T16:25:26.081Z,19.65
2019-01-11T16:27:55.031Z,19.93
2019-01-11T16:30:23.682Z,20.40
2019-01-11T16:32:52.370Z,19.67
2019-01-11T16:35:20.896Z,17.63
2019-01-11T16:37:49.548Z,18.50
2019-01-11T16:40:18.161Z,20.75
2019-01-11T16:42:46.847Z,21.33
2019-01-11T16:45:16.058Z,28.03
2019-01-11T16:47:44.675Z,31.57
2019-01-11T16:50:14.431Z,28.37
2019-01-11T16:52:46.377Z,31.90
2019-01-11T16:55:13.978Z,25.93
2019-01-11T16:57:42.664Z,25.33
2019-01-11T17:00:14.444Z,25.83
2019-01-11T17:02:43.243Z,24.83
2019-01-11T17:05:12.594Z,24.97
2019-01-11T17:07:41.351Z,28.57
2019-01-11T17:10:10.822Z,27.17
2019-01-11T17:12:41.981Z,33.97
2019-01-11T17:15:12.665Z,35.80
2019-01-11T17:17:41.199Z,33.67
2019-01-11T17:20:12.982Z,44.60
2019-01-11T17:22:41.529Z,61.57
2019-01-11T17:25:10.198Z,57.90
2019-01-11T17:27:39.840Z,42.17
2019-01-11T17:30:12.839Z,34.10
2019-01-11T17:32:41.648Z,29.03
2019-01-11T17:35:10.041Z,27.87
2019-01-11T17:37:39.795Z,36.80
2019-01-11T17:40:09.824Z,34.67
2019-01-11T17:42:38.642Z,33.83
2019-01-11T17:45:10.988Z,32.50
2019-01-11T17:47:39.783Z,32.20
2019-01-11T17:50:14.407Z,33.87
2019-01-11T17:52:43.084Z,36.97
2019-01-11T17:55:11.843Z,43.37
2019-01-11T17:57:40.743Z,48.93
2019-01-11T18:00:13.151Z,62.60
2019-01-11T18:02:41.916Z,60.93
2019-01-11T18:05:10.940Z,58.63
2019-01-11T18:07:39.708Z,58.67
2019-01-11T18:10:09.498Z,50.07
2019-01-11T18:12:38.328Z,49.20
2019-01-11T18:15:12.930Z,46.83
2019-01-11T18:17:41.608Z,45.53
2019-01-11T18:20:16.353Z,40.17
2019-01-11T18:22:45.172Z,36.53
2019-01-11T18:25:14.932Z,35.70
2019-01-11T18:27:43.795Z,36.33
2019-01-11T18:30:13.449Z,78.53
2019-01-11T18:32:42.061Z,66.53
2019-01-11T18:35:10.852Z,61.13
2019-01-11T18:37:39.447Z,58.93
2019-01-11T18:40:09.526Z,40.10
2019-01-11T18:42:39.383Z,37.20
2019-01-11T18:45:08.273Z,30.40
2019-01-11T18:47:36.594Z,31.17
2019-01-11T18:50:08.068Z,31.63
2019-01-11T18:52:36.715Z,33.43
2019-01-11T18:55:05.415Z,31.23
2019-01-11T18:57:34.179Z,31.50
2019-01-11T19:00:04.065Z,29.20
2019-01-11T19:02:32.409Z,32.10
2019-01-11T19:05:00.592Z,29.03
2019-01-11T19:07:29.189Z,24.77
2019-01-11T19:09:58.351Z,25.90
2019-01-11T19:12:26.790Z,25.60
2019-01-11T19:14:55.499Z,26.90
2019-01-11T19:17:24.227Z,26.03
2019-01-11T19:19:52.892Z,23.27
2019-01-11T19:22:21.195Z,23.27
2019-01-11T19:24:49.650Z,22.37
2019-01-11T19:27:18.350Z,24.37
2019-01-11T19:29:47.152Z,26.43
2019-01-11T19:32:15.967Z,26.77
2019-01-11T19:34:44.242Z,25.83
2019-01-11T19:37:12.933Z,24.70
2019-01-11T19:39:41.328Z,26.30
2019-01-11T19:42:10.107Z,24.93
2019-01-11T19:44:38.801Z,23.80
2019-01-11T19:47:07.428Z,29.53
2019-01-11T19:49:36.000Z,25.13
2019-01-11T19:52:04.381Z,22.07
2019-01-11T19:54:33.000Z,25.40
2019-01-11T19:57:01.662Z,21.70
2019-01-11T19:59:30.381Z,20.23
2019-01-11T20:01:59.087Z,22.27
2019-01-11T20:04:27.737Z,19.63
2019-01-11T20:06:56.294Z,17.70
2019-01-11T20:09:25.025Z,21.00
2019-01-11T20:11:53.338Z,19.80
2019-01-11T20:14:22.190Z,17.87
2019-01-11T20:16:50.775Z,18.43
2019-01-11T20:19:19.529Z,19.03
2019-01-11T20:21:48.185Z,20.90
2019-01-11T20:24:17.024Z,21.50
2019-01-11T20:26:46.676Z,25.70
2019-01-11T20:29:15.306Z,23.17
2019-01-11T20:31:44.085Z,21.50
2019-01-11T20:34:12.713Z,20.97
2019-01-11T20:36:46.132Z,21.80
2019-01-11T20:39:14.660Z,21.30
2019-01-11T20:41:43.409Z,20.77
2019-01-11T20:44:11.792Z,22.80
2019-01-11T20:46:40.418Z,27.30
2019-01-11T20:49:10.197Z,25.50
2019-01-11T20:51:38.831Z,30.03
2019-01-11T20:54:07.182Z,28.83
2019-01-11T20:56:36.480Z,26.17
2019-01-11T20:59:05.279Z,26.30
2019-01-11T21:01:34.057Z,27.43
2019-01-11T21:04:02.596Z,26.83
2019-01-11T21:06:31.319Z,28.83
2019-01-11T21:09:00.064Z,27.23
2019-01-11T21:11:28.689Z,29.33
2019-01-11T21:13:57.440Z,29.90
2019-01-11T21:16:26.135Z,32.33
2019-01-11T21:18:54.940Z,32.30
2019-01-11T21:21:23.721Z,29.83
2019-01-11T21:23:52.504Z,30.30
2019-01-11T21:26:21.288Z,30.33
2019-01-11T21:28:50.000Z,28.70
2019-01-11T21:31:18.613Z,31.70
2019-01-11T21:33:47.306Z,35.00
2019-01-11T21:36:15.950Z,34.03
2019-01-11T21:38:44.744Z,32.83
2019-01-11T21:41:13.536Z,34.63
2019-01-11T21:43:42.212Z,32.70
2019-01-11T21:46:11.019Z,29.13
2019-01-11T21:48:39.653Z,29.33
2019-01-11T21:51:08.447Z,31.43
2019-01-11T21:53:36.965Z,26.20
2019-01-11T21:56:05.745Z,34.80
2019-01-11T21:58:34.344Z,24.97
2019-01-11T22:01:03.249Z,26.93
2019-01-11T22:03:31.971Z,28.03
2019-01-11T22:06:00.637Z,27.07
2019-01-11T22:08:29.343Z,27.67
2019-01-11T22:10:58.100Z,27.27
2019-01-11T22:13:26.683Z,28.47
2019-01-11T22:15:55.483Z,32.83
2019-01-11T22:18:24.189Z,31.17
2019-01-11T22:20:52.986Z,29.17
2019-01-11T22:23:23.807Z,30.70
2019-01-11T22:25:52.076Z,39.73
2019-01-11T22:28:20.714Z,56.90
2019-01-11T22:30:49.385Z,35.37
2019-01-11T22:33:17.927Z,34.93
2019-01-11T22:35:46.319Z,37.57
2019-01-11T22:38:15.205Z,46.00
2019-01-11T22:40:43.747Z,41.13
2019-01-11T22:43:12.239Z,34.30
2019-01-11T22:45:41.000Z,31.87
2019-01-11T22:48:09.526Z,31.63
2019-01-11T22:50:38.275Z,31.43
2019-01-11T22:53:06.865Z,30.00
2019-01-11T22:55:35.428Z,29.87
2019-01-11T22:58:04.352Z,27.83
2019-01-11T23:00:54.447Z,26.70
2019-01-11T23:03:26.900Z,26.20
2019-01-11T23:06:00.140Z,26.17
2019-01-11T23:08:28.656Z,27.37
2019-01-11T23:11:45.909Z,27.77
2019-01-11T23:14:14.576Z,28.30
2019-01-11T23:17:21.338Z,29.93
2019-01-11T23:19:49.977Z,32.33
2019-01-11T23:22:18.397Z,30.37
2019-01-11T23:24:47.345Z,29.97
2019-01-11T23:27:16.232Z,28.90
2019-01-11T23:29:45.139Z,29.37
2019-01-11T23:32:13.941Z,29.60
2019-01-11T23:34:43.018Z,28.87
2019-01-11T23:37:11.891Z,30.23
2019-01-11T23:39:40.541Z,30.97
2019-01-11T23:42:09.333Z,29.10
2019-01-11T23:44:37.931Z,27.80
2019-01-11T23:47:06.489Z,26.77
2019-01-11T23:49:35.289Z,26.63
2019-01-11T23:52:04.016Z,27.37
2019-01-11T23:54:32.685Z,24.37
2019-01-11T23:57:01.152Z,23.30
2019-01-11T23:59:29.898Z,22.10
